createdAt,value
2023-04-20T00:01:21.080Z,11.00
2023-04-20T00:03:52.924Z,11.00
2023-04-20T00:06:25.924Z,11.00
2023-04-20T00:08:57.053Z,11.00
2023-04-20T00:11:30.203Z,11.00
2023-04-20T00:14:01.286Z,11.00
2023-04-20T00:16:34.631Z,11.00
2023-04-20T00:19:07.623Z,11.00
2023-04-20T00:21:39.209Z,11.00
2023-04-20T00:24:10.536Z,11.00
2023-04-20T00:26:42.222Z,11.00
2023-04-20T00:29:13.621Z,11.00
2023-04-20T00:31:47.097Z,11.00
2023-04-20T00:34:19.113Z,11.00
2023-04-20T00:36:49.854Z,11.00
2023-04-20T00:39:22.152Z,11.00
2023-04-20T00:41:52.790Z,11.00
2023-04-20T00:44:23.867Z,11.00
2023-04-20T00:46:59.162Z,11.00
2023-04-20T00:49:31.188Z,11.00
2023-04-20T00:52:02.212Z,11.00
2023-04-20T00:54:35.055Z,11.00
2023-04-20T00:57:07.496Z,11.00
2023-04-20T00:59:39.231Z,11.00
2023-04-20T01:02:12.768Z,11.00
2023-04-20T01:04:45.823Z,11.00
2023-04-20T01:07:16.533Z,11.00
2023-04-20T01:09:48.529Z,11.00
2023-04-20T01:12:19.190Z,10.90
2023-04-20T01:14:50.640Z,10.90
2023-04-20T01:17:24.967Z,10.90
2023-04-20T01:19:56.179Z,10.90
2023-04-20T01:22:29.634Z,10.90
2023-04-20T01:25:00.712Z,10.90
2023-04-20T01:27:31.569Z,10.90
2023-04-20T01:30:05.583Z,10.90
2023-04-20T01:32:36.471Z,10.90
2023-04-20T01:35:08.402Z,10.90
2023-04-20T01:37:41.792Z,10.90
2023-04-20T01:40:14.716Z,10.90
2023-04-20T01:42:45.403Z,10.90
2023-04-20T01:45:16.766Z,10.90
2023-04-20T01:47:47.590Z,10.90
2023-04-20T01:50:18.658Z,10.90
2023-04-20T01:52:52.064Z,10.90
2023-04-20T01:55:23.416Z,10.90
2023-04-20T01:57:56.469Z,11.00
2023-04-20T02:00:27.835Z,10.90
2023-04-20T02:02:58.589Z,10.90
2023-04-20T02:05:29.728Z,10.90
2023-04-20T02:08:04.906Z,10.90
2023-04-20T02:10:36.323Z,10.90
2023-04-20T02:13:07.006Z,10.90
2023-04-20T02:15:38.652Z,10.90
2023-04-20T02:18:09.883Z,10.90
2023-04-20T02:20:41.468Z,10.80
2023-04-20T02:23:14.968Z,10.80
2023-04-20T02:25:46.056Z,10.80
2023-04-20T02:28:17.072Z,10.80
2023-04-20T02:30:48.084Z,10.70
2023-04-20T02:33:21.493Z,10.70
2023-04-20T02:35:52.620Z,10.70
2023-04-20T02:38:26.072Z,10.70
2023-04-20T02:40:57.369Z,10.70
2023-04-20T02:43:28.927Z,10.60
2023-04-20T02:46:00.275Z,10.60
2023-04-20T02:48:32.014Z,10.60
2023-04-20T02:51:04.447Z,10.60
2023-04-20T02:53:41.893Z,10.70
2023-04-20T02:56:22.895Z,10.70
2023-04-20T02:58:58.566Z,10.60
2023-04-20T03:01:55.692Z,10.60
2023-04-20T03:04:29.165Z,10.70
2023-04-20T03:07:10.525Z,10.70
2023-04-20T03:09:45.705Z,10.60
2023-04-20T03:12:29.392Z,10.70
2023-04-20T03:15:32.336Z,10.70
2023-04-20T03:18:32.539Z,10.70
2023-04-20T03:21:03.433Z,10.70
2023-04-20T03:23:36.285Z,10.60
2023-04-20T03:26:10.836Z,10.60
2023-04-20T03:28:49.151Z,10.60
2023-04-20T03:31:23.487Z,10.60
2023-04-20T03:33:55.686Z,10.70
2023-04-20T03:36:26.690Z,10.70
2023-04-20T03:38:59.389Z,10.70
2023-04-20T03:41:33.862Z,10.70
2023-04-20T03:44:04.876Z,10.70
2023-04-20T03:46:36.792Z,10.70
2023-04-20T03:49:08.038Z,10.70
2023-04-20T03:51:39.162Z,10.70
2023-04-20T03:54:10.219Z,10.70
2023-04-20T03:56:44.991Z,10.80
2023-04-20T03:59:17.895Z,10.80
2023-04-20T04:01:52.200Z,10.80
2023-04-20T04:04:23.907Z,10.80
2023-04-20T04:06:54.888Z,10.80
2023-04-20T04:09:26.918Z,10.90
2023-04-20T04:12:01.709Z,10.90
2023-04-20T04:14:35.131Z,10.90
2023-04-20T04:17:08.350Z,10.90
2023-04-20T04:19:43.961Z,11.00
2023-04-20T04:22:15.773Z,11.00
2023-04-20T04:25:02.099Z,11.10
2023-04-20T04:27:36.251Z,11.20
2023-04-20T04:30:07.700Z,11.30
2023-04-20T04:32:39.724Z,11.30
2023-04-20T04:35:11.683Z,11.40
2023-04-20T04:37:42.745Z,11.50
2023-04-20T04:40:14.238Z,11.50
2023-04-20T04:42:49.025Z,11.60
2023-04-20T04:45:20.253Z,11.70
2023-04-20T04:47:53.184Z,11.80
2023-04-20T04:50:24.356Z,11.80
2023-04-20T04:52:55.811Z,11.80
2023-04-20T04:55:26.876Z,11.90
2023-04-20T04:58:00.411Z,11.90
2023-04-20T05:00:32.813Z,11.90
2023-04-20T05:03:04.477Z,11.80
2023-04-20T05:05:35.862Z,11.80
2023-04-20T05:08:07.237Z,11.90
2023-04-20T05:10:39.456Z,11.90
2023-04-20T05:13:13.829Z,11.90
2023-04-20T05:15:45.679Z,11.90
2023-04-20T05:18:16.556Z,12.00
2023-04-20T05:20:50.414Z,12.00
2023-04-20T05:23:21.689Z,12.10
2023-04-20T05:25:53.746Z,12.10
2023-04-20T05:28:29.080Z,12.30
2023-04-20T05:31:00.973Z,12.30
2023-04-20T05:33:35.058Z,12.40
2023-04-20T05:36:08.247Z,12.50
2023-04-20T05:38:39.567Z,12.60
2023-04-20T05:41:11.038Z,12.70
2023-04-20T05:43:44.472Z,12.80
2023-04-20T05:46:15.651Z,12.80
2023-04-20T05:48:47.121Z,12.90
2023-04-20T05:51:19.084Z,13.00
2023-04-20T05:53:51.017Z,13.10
2023-04-20T05:56:22.463Z,13.20
2023-04-20T05:59:01.154Z,13.20
2023-04-20T06:01:32.447Z,13.30
2023-04-20T06:04:03.856Z,13.40
2023-04-20T06:06:35.811Z,13.50
2023-04-20T06:09:06.898Z,13.60
2023-04-20T06:11:38.041Z,13.70
2023-04-20T06:14:12.539Z,13.80
2023-04-20T06:16:43.901Z,13.90
2023-04-20T06:19:15.972Z,13.80
2023-04-20T06:21:49.024Z,13.80
2023-04-20T06:24:21.023Z,13.80
2023-04-20T06:26:52.813Z,13.90
2023-04-20T06:29:27.170Z,13.90
2023-04-20T06:31:59.167Z,13.90
2023-04-20T06:34:31.151Z,13.80
2023-04-20T06:37:03.901Z,13.90
2023-04-20T06:39:37.352Z,13.80
2023-04-20T06:42:09.802Z,13.90
2023-04-20T06:44:44.392Z,13.90
2023-04-20T06:47:16.470Z,13.90
2023-04-20T06:49:48.194Z,14.00
2023-04-20T06:52:21.587Z,14.00
2023-04-20T06:54:53.424Z,14.00
2023-04-20T06:57:27.984Z,14.00
2023-04-20T07:00:03.138Z,14.10
2023-04-20T07:02:44.949Z,14.10
2023-04-20T07:05:16.685Z,14.10
2023-04-20T07:07:48.228Z,14.10
2023-04-20T07:10:19.549Z,14.20
2023-04-20T07:12:51.168Z,14.20
2023-04-20T07:15:26.756Z,14.30
2023-04-20T07:17:57.947Z,14.30
2023-04-20T07:20:29.550Z,14.30
2023-04-20T07:23:02.059Z,14.30
2023-04-20T07:25:34.177Z,14.40
2023-04-20T07:28:06.169Z,14.50
2023-04-20T07:30:41.520Z,14.50
2023-04-20T07:33:13.793Z,14.50
2023-04-20T07:35:45.776Z,14.60
2023-04-20T07:38:18.974Z,14.60
2023-04-20T07:40:50.604Z,14.70
2023-04-20T07:43:24.988Z,14.70
2023-04-20T07:46:00.071Z,14.70
2023-04-20T07:48:32.620Z,14.80
2023-04-20T07:51:04.254Z,14.90
2023-04-20T07:53:37.673Z,14.90
2023-04-20T07:56:09.779Z,14.90
2023-04-20T07:58:43.069Z,15.00
2023-04-20T08:01:17.981Z,15.00
2023-04-20T08:03:50.919Z,15.10
2023-04-20T08:06:22.460Z,15.10
2023-04-20T08:08:54.441Z,15.20
2023-04-20T08:11:25.958Z,15.20
2023-04-20T08:13:58.418Z,15.40
2023-04-20T08:16:32.139Z,15.50
2023-04-20T08:19:10.623Z,15.60
2023-04-20T08:21:44.100Z,15.70
2023-04-20T08:24:17.344Z,15.80
2023-04-20T08:26:48.507Z,15.90
2023-04-20T08:29:20.983Z,16.00
2023-04-20T08:31:55.410Z,16.00
2023-04-20T08:34:26.994Z,16.10
2023-04-20T08:37:00.496Z,16.10
2023-04-20T08:39:31.898Z,16.20
2023-04-20T08:42:03.913Z,16.20
2023-04-20T08:44:36.345Z,16.20
2023-04-20T08:47:13.264Z,16.20
2023-04-20T08:49:47.743Z,16.20
2023-04-20T08:52:19.388Z,16.20
2023-04-20T08:54:56.518Z,16.30
2023-04-20T08:57:29.138Z,16.30
2023-04-20T09:00:01.023Z,16.30
2023-04-20T09:02:35.760Z,16.40
2023-04-20T09:05:08.884Z,16.50
2023-04-20T09:07:39.964Z,16.50
2023-04-20T09:10:12.347Z,16.50
2023-04-20T09:12:44.415Z,16.60
2023-04-20T09:15:27.511Z,16.60
2023-04-20T09:18:01.321Z,16.70
2023-04-20T09:20:37.430Z,16.70
2023-04-20T09:23:19.099Z,16.80
2023-04-20T09:25:54.127Z,16.80
2023-04-20T09:28:26.692Z,16.90
2023-04-20T09:30:58.949Z,16.90
2023-04-20T09:33:38.346Z,16.90
2023-04-20T09:36:12.116Z,17.00
2023-04-20T09:38:44.840Z,16.90
2023-04-20T09:41:23.906Z,16.90
2023-04-20T09:43:56.701Z,17.00
2023-04-20T09:46:33.679Z,17.00
2023-04-20T09:49:12.064Z,17.10
2023-04-20T09:51:45.980Z,17.10
2023-04-20T09:54:18.986Z,17.20
2023-04-20T09:56:57.130Z,17.20
2023-04-20T09:59:32.061Z,17.30
2023-04-20T10:02:04.610Z,17.40
2023-04-20T10:04:44.269Z,17.40
2023-04-20T10:07:27.247Z,17.40
2023-04-20T10:10:12.090Z,17.50
2023-04-20T10:12:51.720Z,17.50
2023-04-20T10:15:24.655Z,17.60
2023-04-20T10:17:57.030Z,17.60
2023-04-20T10:20:31.837Z,17.70
2023-04-20T10:23:15.521Z,17.80
2023-04-20T10:25:48.186Z,17.80
2023-04-20T10:28:20.195Z,17.80
2023-04-20T10:30:55.694Z,17.90
2023-04-20T10:33:28.092Z,17.90
2023-04-20T10:36:06.399Z,18.00
2023-04-20T10:38:42.034Z,18.00
2023-04-20T10:41:13.885Z,18.10
2023-04-20T10:43:45.285Z,18.20
2023-04-20T10:46:23.500Z,18.20
2023-04-20T10:48:59.964Z,18.20
2023-04-20T10:51:34.537Z,18.30
2023-04-20T10:54:10.083Z,18.30
2023-04-20T10:56:42.440Z,18.30
2023-04-20T10:59:18.588Z,18.40
2023-04-20T11:01:50.650Z,18.50
2023-04-20T11:04:22.566Z,18.60
2023-04-20T11:06:57.483Z,18.60
2023-04-20T11:09:30.205Z,18.70
2023-04-20T11:12:02.461Z,18.70
2023-04-20T11:14:34.593Z,18.70
2023-04-20T11:17:06.160Z,18.80
2023-04-20T11:19:38.918Z,18.90
2023-04-20T11:22:13.108Z,18.90
2023-04-20T11:24:45.276Z,19.00
2023-04-20T11:27:24.554Z,19.00
2023-04-20T11:30:05.022Z,18.90
2023-04-20T11:32:36.949Z,18.90
2023-04-20T11:35:09.887Z,18.90
2023-04-20T11:37:54.201Z,18.90
2023-04-20T11:40:28.454Z,18.90
2023-04-20T11:43:05.164Z,18.80
2023-04-20T11:45:37.691Z,18.90
2023-04-20T11:48:14.027Z,18.90
2023-04-20T11:50:47.015Z,18.90
2023-04-20T11:53:20.911Z,18.90
2023-04-20T11:55:52.650Z,18.90
2023-04-20T11:58:23.867Z,18.90
2023-04-20T12:00:57.489Z,19.00
2023-04-20T12:03:29.352Z,19.10
2023-04-20T12:06:07.118Z,19.10
2023-04-20T12:08:41.502Z,19.10
2023-04-20T12:11:14.054Z,19.10
2023-04-20T12:13:45.475Z,19.10
2023-04-20T12:16:18.036Z,19.10
2023-04-20T12:18:49.627Z,19.10
2023-04-20T12:21:21.432Z,19.10
2023-04-20T12:23:55.554Z,19.10
2023-04-20T12:26:37.847Z,19.10
2023-04-20T12:29:10.650Z,19.10
2023-04-20T12:31:42.239Z,19.20
2023-04-20T12:34:14.073Z,19.20
2023-04-20T12:36:47.205Z,19.20
2023-04-20T12:39:24.659Z,19.20
2023-04-20T12:41:56.094Z,19.20
2023-04-20T12:44:27.947Z,19.20
2023-04-20T12:47:00.682Z,19.20
2023-04-20T12:49:33.837Z,19.20
2023-04-20T12:52:08.008Z,19.10
2023-04-20T12:54:44.125Z,19.10
2023-04-20T12:57:16.881Z,19.10
2023-04-20T12:59:52.234Z,19.10
2023-04-20T13:02:24.666Z,19.00
2023-04-20T13:04:56.852Z,19.00
2023-04-20T13:07:29.229Z,19.00
2023-04-20T13:10:04.397Z,19.10
2023-04-20T13:12:36.522Z,19.20
2023-04-20T13:15:11.850Z,19.20
2023-04-20T13:17:44.229Z,19.20
2023-04-20T13:20:16.586Z,19.30
2023-04-20T13:22:57.889Z,19.30
2023-04-20T13:25:33.144Z,19.30
2023-04-20T13:28:05.383Z,19.30
2023-04-20T13:30:36.262Z,19.20
2023-04-20T13:33:07.500Z,19.30
2023-04-20T13:35:38.342Z,19.30
2023-04-20T13:38:10.247Z,19.20
2023-04-20T13:40:45.494Z,19.30
2023-04-20T13:43:19.437Z,19.30
2023-04-20T13:45:52.692Z,19.30
2023-04-20T13:48:25.719Z,19.30
2023-04-20T13:50:57.431Z,19.20
2023-04-20T13:53:30.003Z,19.10
2023-04-20T13:56:03.816Z,19.00
2023-04-20T13:58:36.006Z,18.90
2023-04-20T14:01:11.373Z,18.80
2023-04-20T14:03:43.510Z,18.70
2023-04-20T14:06:15.818Z,18.70
2023-04-20T14:08:49.023Z,18.70
2023-04-20T14:11:23.403Z,18.70
2023-04-20T14:13:55.733Z,18.80
2023-04-20T14:16:28.707Z,18.80
2023-04-20T14:19:00.668Z,18.90
2023-04-20T14:21:33.222Z,18.90
2023-04-20T14:24:08.130Z,19.00
2023-04-20T14:26:43.162Z,19.00
2023-04-20T14:29:15.584Z,19.00
2023-04-20T14:31:47.173Z,19.10
2023-04-20T14:34:19.493Z,19.00
2023-04-20T14:36:52.368Z,19.00
2023-04-20T14:39:25.131Z,19.00
2023-04-20T14:41:59.477Z,18.90
2023-04-20T14:44:31.992Z,18.90
2023-04-20T14:47:04.389Z,18.90
2023-04-20T14:49:38.162Z,18.90
2023-04-20T14:52:09.889Z,18.90
2023-04-20T14:54:42.137Z,18.90
2023-04-20T14:57:18.679Z,19.00
2023-04-20T14:59:52.949Z,18.90
2023-04-20T15:02:24.853Z,19.00
2023-04-20T15:04:57.653Z,19.00
2023-04-20T15:07:29.730Z,19.00
2023-04-20T15:10:02.026Z,19.00
2023-04-20T15:12:37.543Z,19.10
2023-04-20T15:15:10.397Z,19.10
2023-04-20T15:17:41.710Z,19.10
2023-04-20T15:20:15.548Z,19.00
2023-04-20T15:22:47.591Z,19.00
2023-04-20T15:25:20.318Z,18.90
2023-04-20T15:27:55.837Z,18.90
2023-04-20T15:30:28.124Z,18.90
2023-04-20T15:33:05.343Z,18.80
2023-04-20T15:35:39.329Z,18.70
2023-04-20T15:38:10.800Z,18.70
2023-04-20T15:40:42.699Z,18.70
2023-04-20T15:43:16.337Z,18.70
2023-04-20T15:45:48.559Z,18.70
2023-04-20T15:48:21.770Z,18.70
2023-04-20T15:50:55.427Z,18.70
2023-04-20T15:53:29.447Z,18.70
2023-04-20T15:56:01.577Z,18.70
2023-04-20T15:58:37.571Z,18.60
2023-04-20T16:01:09.644Z,18.50
2023-04-20T16:03:44.019Z,18.50
2023-04-20T16:06:18.149Z,18.40
2023-04-20T16:08:53.776Z,18.30
2023-04-20T16:11:27.333Z,18.20
2023-04-20T16:14:01.372Z,18.20
2023-04-20T16:16:34.298Z,18.20
2023-04-20T16:19:06.645Z,18.10
2023-04-20T16:21:38.981Z,18.10
2023-04-20T16:24:10.575Z,18.00
2023-04-20T16:26:42.888Z,18.00
2023-04-20T16:29:17.813Z,18.00
2023-04-20T16:31:50.466Z,17.90
2023-04-20T16:34:24.886Z,17.90
2023-04-20T16:36:58.277Z,17.80
2023-04-20T16:39:31.011Z,17.80
2023-04-20T16:42:05.103Z,17.70
2023-04-20T16:44:41.817Z,17.70
2023-04-20T16:47:14.212Z,17.70
2023-04-20T16:49:45.890Z,17.70
2023-04-20T16:52:18.348Z,17.70
2023-04-20T16:54:50.282Z,17.60
2023-04-20T16:57:22.628Z,17.50
2023-04-20T16:59:58.322Z,17.50
2023-04-20T17:02:35.385Z,17.40
2023-04-20T17:05:07.707Z,17.30
2023-04-20T17:07:40.063Z,17.30
2023-04-20T17:10:11.678Z,17.20
2023-04-20T17:12:43.272Z,17.20
2023-04-20T17:15:17.653Z,17.10
2023-04-20T17:17:49.292Z,17.10
2023-04-20T17:20:20.384Z,17.00
2023-04-20T17:22:52.186Z,16.90
2023-04-20T17:25:24.173Z,16.80
2023-04-20T17:27:56.517Z,16.80
2023-04-20T17:30:30.360Z,16.70
2023-04-20T17:33:02.509Z,16.70
2023-04-20T17:35:34.453Z,16.50
2023-04-20T17:38:07.845Z,16.50
2023-04-20T17:40:39.540Z,16.40
2023-04-20T17:43:12.557Z,16.30
2023-04-20T17:45:46.330Z,16.30
2023-04-20T17:48:21.563Z,16.20
2023-04-20T17:50:53.222Z,16.10
2023-04-20T17:53:24.543Z,16.00
2023-04-20T17:55:56.422Z,15.90
2023-04-20T17:58:28.569Z,15.90
2023-04-20T18:01:05.061Z,15.80
2023-04-20T18:03:36.842Z,15.70
2023-04-20T18:06:07.756Z,15.70
2023-04-20T18:08:39.030Z,15.60
2023-04-20T18:11:09.708Z,15.50
2023-04-20T18:13:41.262Z,15.50
2023-04-20T18:16:14.739Z,15.40
2023-04-20T18:18:46.460Z,15.40
2023-04-20T18:21:18.271Z,15.30
2023-04-20T18:23:50.502Z,15.30
2023-04-20T18:26:21.285Z,15.20
2023-04-20T18:28:52.528Z,15.10
2023-04-20T18:31:26.181Z,15.10
2023-04-20T18:33:57.374Z,15.10
2023-04-20T18:36:28.711Z,15.00
2023-04-20T18:39:00.157Z,14.90
2023-04-20T18:41:31.094Z,14.90
2023-04-20T18:44:02.497Z,14.80
2023-04-20T18:46:36.463Z,14.80
2023-04-20T18:49:08.343Z,14.70
2023-04-20T18:51:40.745Z,14.70
2023-04-20T18:54:11.997Z,14.60
2023-04-20T18:56:42.817Z,14.60
2023-04-20T18:59:14.322Z,14.60
2023-04-20T19:01:47.717Z,14.50
2023-04-20T19:04:19.530Z,14.40
2023-04-20T19:06:51.170Z,14.40
2023-04-20T19:09:22.305Z,14.30
2023-04-20T19:11:53.854Z,14.30
2023-04-20T19:14:24.996Z,14.20
2023-04-20T19:16:58.770Z,14.20
2023-04-20T19:19:30.052Z,14.20
2023-04-20T19:22:01.055Z,14.10
2023-04-20T19:24:32.434Z,14.00
2023-04-20T19:27:03.640Z,14.00
2023-04-20T19:29:35.664Z,14.00
2023-04-20T19:32:09.711Z,13.90
2023-04-20T19:34:42.062Z,13.90
2023-04-20T19:37:13.943Z,13.80
2023-04-20T19:39:46.049Z,13.80
2023-04-20T19:42:16.814Z,13.70
2023-04-20T19:44:47.990Z,13.70
2023-04-20T19:47:21.485Z,13.70
2023-04-20T19:49:52.929Z,13.60
2023-04-20T19:52:23.758Z,13.60
2023-04-20T19:54:54.901Z,13.60
2023-04-20T19:57:26.831Z,13.50
2023-04-20T19:59:58.063Z,13.50
2023-04-20T20:02:31.579Z,13.50
2023-04-20T20:05:03.291Z,13.40
2023-04-20T20:07:38.026Z,13.40
2023-04-20T20:10:09.562Z,13.30
2023-04-20T20:12:41.069Z,13.30
2023-04-20T20:15:12.343Z,13.30
2023-04-20T20:17:47.906Z,13.20
2023-04-20T20:20:19.364Z,13.20
2023-04-20T20:22:51.003Z,13.20
2023-04-20T20:25:22.525Z,13.20
2023-04-20T20:27:53.257Z,13.20
2023-04-20T20:30:25.306Z,13.20
2023-04-20T20:32:59.248Z,13.20
2023-04-20T20:35:31.872Z,13.20
2023-04-20T20:38:06.599Z,13.20
2023-04-20T20:40:37.881Z,13.20
2023-04-20T20:43:08.937Z,13.20
2023-04-20T20:45:40.439Z,13.20
2023-04-20T20:48:13.727Z,13.20
2023-04-20T20:50:45.049Z,13.20
2023-04-20T20:53:19.191Z,13.20
2023-04-20T20:55:50.295Z,13.20
2023-04-20T20:58:21.249Z,13.10
2023-04-20T21:00:52.643Z,13.10
2023-04-20T21:03:26.263Z,13.10
2023-04-20T21:05:57.531Z,13.10
2023-04-20T21:08:28.443Z,13.10
2023-04-20T21:10:59.583Z,13.10
2023-04-20T21:13:30.315Z,13.10
2023-04-20T21:16:01.504Z,13.00
2023-04-20T21:18:37.719Z,13.00
2023-04-20T21:21:09.024Z,13.00
2023-04-20T21:23:39.857Z,13.00
2023-04-20T21:26:11.612Z,13.00
2023-04-20T21:28:42.324Z,13.00
2023-04-20T21:31:13.446Z,13.00
2023-04-20T21:33:47.312Z,13.00
2023-04-20T21:36:18.508Z,12.90
2023-04-20T21:38:49.285Z,12.90
2023-04-20T21:41:20.523Z,12.90
2023-04-20T21:43:51.222Z,12.90
2023-04-20T21:46:22.425Z,12.80
2023-04-20T21:48:56.497Z,12.80
2023-04-20T21:51:28.104Z,12.80
2023-04-20T21:53:58.801Z,12.80
2023-04-20T21:56:30.362Z,12.70
2023-04-20T21:59:01.354Z,12.70
2023-04-20T22:01:32.776Z,12.60
2023-04-20T22:04:07.783Z,12.60
2023-04-20T22:06:39.256Z,12.60
2023-04-20T22:09:10.172Z,12.60
2023-04-20T22:11:42.070Z,12.60
2023-04-20T22:14:12.732Z,12.60
2023-04-20T22:16:43.909Z,12.50
2023-04-20T22:19:18.021Z,12.50
2023-04-20T22:21:50.054Z,12.50
2023-04-20T22:24:21.576Z,12.50
2023-04-20T22:26:53.074Z,12.50
2023-04-20T22:29:24.490Z,12.40
2023-04-20T22:31:55.612Z,12.50
2023-04-20T22:34:28.914Z,12.40
2023-04-20T22:36:59.947Z,12.40
2023-04-20T22:39:30.777Z,12.40
2023-04-20T22:42:02.397Z,12.40
2023-04-20T22:44:33.845Z,12.30
2023-04-20T22:47:06.748Z,12.30
2023-04-20T22:49:40.622Z,12.30
2023-04-20T22:52:12.960Z,12.30
2023-04-20T22:54:48.404Z,12.20
2023-04-20T22:57:21.300Z,12.20
2023-04-20T22:59:52.264Z,12.20
2023-04-20T23:02:23.834Z,12.20
2023-04-20T23:04:57.308Z,12.10
2023-04-20T23:07:28.452Z,12.10
2023-04-20T23:10:00.163Z,12.10
2023-04-20T23:12:32.752Z,12.00
2023-04-20T23:15:04.120Z,12.00
2023-04-20T23:17:35.626Z,12.00
2023-04-20T23:20:11.273Z,12.00
2023-04-20T23:22:42.334Z,12.00
2023-04-20T23:25:13.107Z,12.00
2023-04-20T23:27:44.157Z,11.90
2023-04-20T23:30:16.391Z,11.90
2023-04-20T23:32:47.594Z,11.90
2023-04-20T23:35:21.717Z,11.80
2023-04-20T23:37:52.864Z,11.80
2023-04-20T23:40:23.780Z,11.80
2023-04-20T23:42:55.325Z,11.70
2023-04-20T23:45:26.563Z,11.70
2023-04-20T23:47:57.705Z,11.70
2023-04-20T23:50:31.112Z,11.70
2023-04-20T23:53:02.522Z,11.60
2023-04-20T23:55:33.313Z,11.60
2023-04-20T23:58:04.477Z,11.60
